Details From WMKP - Penang Intl
To WMKL - Langkawi Intl
Flight Number -
Tags generated
Created
Modified
Stats Distance 70 nm / 130 km
Max Altitude 5,500 ft / 1,676 m
Waypoints 3
Social Downloads 6
Likes 0
Share

Download

Looking for another format? Having issues loading an existing format? Contact us
Advertisement - Login to hide

Notes

Basic altitude profile: - Ascent Rate: 2500ft/min - Ascent Speed: 250kts - Cruise Altitude: 14000ft - Cruise Speed: 420kts - Descent Rate: 1500ft/min - Descent Speed: 280kts Options: - Use NATs: yes - Use PACOTS: yes - Use low airways: yes - Use high airways: yes

Route

WMKP GOMAT WMKL

ID Type Via Altitude (ft/m) Position (lat/lon) Dist (leg/tot) Name
O WMKP APT - 0 / 0 5.29714 / 100.27686 - / 0 nm Penang Intl
GOMAT FIX - 5,500 / 1,676 5.95333 / 99.93889 44 / 44 nm
O WMKL APT - 0 / 0 6.32973 / 99.72866 25 / 70 nm Langkawi Intl

Altitude Profile

Advertisement - Login to hide

WMKP

Details ICAO WMKP (PEN)
Name Penang Intl
Region Malaysia (Peninsular Malaysia)
Timezone Asia/Kuala_Lumpur (UTC+8.0)
Stats Elevation 11 ft / 3 m (AMSL)
Location 5.297150° 100.277000°
Runways 1
Magnetic Variation 0.157° W

METAR

WMKP 110930Z 22011KT 200V260 9000 TS FEW017CB 31/25 Q1008 NOSIG

Decode

TAF

TAF WMKP 110500Z 1106/1206 22008KT 9000 FEW020 TEMPO 1109/1115 5000 TSRA FEW010 FEW017CB BECMG 1114/1116 VRB03KT 8000 FEW025 BECMG 1204/1206 22008KT 9000 FEW020

Decode

Departure Runways

ID Width Length Bearing (true/mag) Surface Threshold Overrun Markings Lighting
04 150 ft / 46 m 11,014 ft / 3,357 m 42.06° / 42.21° ASPHALT 0 ft / 0 m 203 ft / 62 m PREC-APP EDGE THRESHOLD CALVERT-ILS REIL-OMNI
22 150 ft / 46 m 11,014 ft / 3,357 m 222.06° / 222.22° ASPHALT 0 ft / 0 m 207 ft / 63 m PREC-APP EDGE THRESHOLD CALVERT-ILS REIL-OMNI

WMKL

Details ICAO WMKL (LGK)
Name Langkawi International Airport
Region Malaysia (Peninsular Malaysia)
Timezone Asia/Kuala_Lumpur (UTC+8.0)
Stats Elevation 15 ft / 5 m (AMSL)
Location 6.329770° 99.728600°
Runways 1
Magnetic Variation 0.226° W

METAR

WMKL 110900Z 22007KT 160V290 9999 FEW017CB 31/27 Q1008

Decode

TAF

TAF AMD WMKL 110935Z 1109/1206 24006KT 9999 FEW022 TEMPO 1109/1114 5000 TSRA FEW010 FEW017CB BECMG 1113/1115 VRB03KT FEW026 BECMG 1204/1206 24006KT FEW022

Decode

Destination Runways

ID Width Length Bearing (true/mag) Surface Threshold Overrun Markings Lighting
03 148 ft / 45 m 12,512 ft / 3,814 m 34.17° / 34.39° ASPHALT 1,988 ft / 606 m 213 ft / 65 m PREC-APP CENTERLINE EDGE THRESHOLD MALSF
21 148 ft / 45 m 12,512 ft / 3,814 m 214.17° / 214.40° ASPHALT 0 ft / 0 m 190 ft / 58 m VISUAL CENTERLINE EDGE THRESHOLD MALSF

Approach Navaids

Runway Type Ident Frequency Range Bearing (true/mag) Slope Elevation
03 GS ILK 110.70 MHz 10 nm / 19 km 34.39° / 34.61 ° 3.00° 29 ft / 9 m (AMSL)
03 DME ILK 110.70 MHz 18 nm / 33 km - - 29 ft / 9 m (AMSL)
03 LOC-ILS ILK 110.70 MHz 18 nm / 33 km 35.68° / 35.91 ° - 29 ft / 9 m (AMSL)

Popular Alternatives